Flight Track Log - Related Links

Times and Time Zones

All times are in EDT time to prevent confusion due to time zone crossing. See the N828AF flight status page for this flight to view local times or setup timezone preferences in your user account.

Time Position Orientation Groundspeed Altitude Reporting Facility
EDT Latitude Longitude Course Direction KTS MPH feet Rate Location/Type
Mon 02:02:26 PM 41.0833 -73.7667 255° West 153 176 3,300  Level New York TRACON
Mon 02:03:26 PM 41.0667 -73.8167 246° West 163 188 5,400 2,050 Climbing New York TRACON
Mon 02:04:26 PM 41.0500 -73.8667 246° West 183 211 7,400 1,700 Climbing New York TRACON
Mon 02:05:26 PM 41.0000 -73.9333 225° Southwest 218 251 8,800 1,800 Climbing New York TRACON
Mon 02:06:26 PM 40.9667 -74.0000 237° Southwest 218 251 11,000 2,050 Climbing New York TRACON
Mon 02:07:00 PM 40.9775 -74.1627 255° West  Level FlightAware Approximate
Mon 02:07:26 PM 40.9167 -74.0500 217° Southwest 225 259 12,900  Level New York TRACON
Mon 02:08:26 PM 40.8833 -74.1167 237° Southwest 223 257 14,900 1,050 Climbing New York TRACON
Mon 02:09:26 PM 40.8333 -74.1833 225° Southwest 272 313 15,000 50 Climbing New York TRACON
Mon 02:10:26 PM 40.8500 -74.2833 282° West 295 339 15,000  Level New York TRACON
Mon 02:11:21 PM 40.9000 -74.3667 308° West 299 344 15,000  Level New York TRACON
Mon 02:12:26 PM 40.9500 -74.4833 300° West 305 351 15,000  Level New York TRACON
Mon 02:13:26 PM 40.9833 -74.5833 294° West 303 349 15,000 -63 Level New York TRACON
Mon 02:14:02 PM 41.0069 -74.6289 304° West 308 354 14,900 188 Descending New York Center
Mon 02:15:02 PM 41.0289 -74.7236 287° West 318 366 15,300 545 Climbing New York Center
Mon 02:16:03 PM 41.0042 -74.8322 253° West 300 345 16,000 793 Climbing New York Center
Mon 02:17:03 PM 40.9722 -74.9153 243° Southwest 294 338 16,900 508 Climbing New York Center
Mon 02:18:01 PM 40.9069 -74.9911 221° Southwest 287 330 17,000 1,119 Climbing New York Center
Mon 02:19:01 PM 40.8569 -75.0536 223° Southwest 284 327 19,100 1,820 Climbing New York Center
Mon 02:20:03 PM 40.8089 -75.1139 224° Southwest 265 305 20,700 1,350 Climbing New York Center
Mon 02:21:01 PM 40.7933 -75.1950 256° West 234 269 21,800 1,220 Climbing New York Center
Mon 02:22:01 PM 40.7792 -75.2900 259° West 234 269 23,100 1,388 Climbing New York Center
Mon 02:23:02 PM 40.7658 -75.3658 257° West 241 277 24,600 1,082 Climbing New York Center
Mon 02:24:03 PM 40.7467 -75.4358 250° West 236 272 25,300 1,059 Climbing New York Center
Mon 02:25:01 PM 40.7139 -75.5239 244° Southwest 236 272 26,700 1,220 Climbing New York Center
Mon 02:26:01 PM 40.6836 -75.6039 243° Southwest 241 277 27,700 942 Climbing New York Center
Mon 02:27:02 PM 40.6553 -75.6839 245° Southwest 246 283 28,600 984 Climbing New York Center
Mon 02:28:03 PM 40.6250 -75.7611 243° Southwest 246 283 29,700 1,008 Climbing New York Center
Mon 02:29:01 PM 40.5967 -75.8383 244° Southwest 246 283 30,600 864 Climbing New York Center
Mon 02:30:01 PM 40.5594 -75.9258 241° Southwest 246 283 31,400 744 Climbing New York Center
Mon 02:31:02 PM 40.5289 -76.0053 243° Southwest 246 283 32,100 694 Climbing New York Center
Mon 02:32:02 PM 40.4981 -76.0903 245° Southwest 252 290 32,800 645 Climbing New York Center
Mon 02:33:03 PM 40.4647 -76.1778 243° Southwest 257 296 33,400 744 Climbing New York Center
Mon 02:34:03 PM 40.4317 -76.2625 243° Southwest 257 296 34,300 763 Climbing New York Center
Mon 02:35:01 PM 40.4111 -76.3481 253° West 257 296 34,900 610 Climbing New York Center
Mon 02:36:01 PM 40.3986 -76.4372 260° West 252 290 35,500 550 Climbing New York Center
Mon 02:37:01 PM 40.3797 -76.5256 254° West 252 290 36,000 248 Climbing New York Center
Mon 02:38:02 PM 40.3647 -76.6142 258° West 252 290 36,000  Level New York Center
Mon 02:39:02 PM 40.3478 -76.7081 257° West 259 298 36,000  Level New York Center
Mon 02:40:03 PM 40.3303 -76.8047 257° West 272 313 36,000  Level New York Center
Mon 02:41:01 PM 40.3103 -76.9092 256° West 278 320 36,000  Level New York Center
Mon 02:42:03 PM 40.2903 -77.0108 256° West 289 333 36,000  Level New York Center
Mon 02:43:03 PM 40.2722 -77.1153 257° West 294 338 36,000  Level New York Center
Mon 02:44:03 PM 40.2519 -77.2194 256° West 294 338 36,000  Level New York Center
Mon 02:45:58 PM 40.2167 -77.4072 256° West 293 337 36,000  Level Cleveland Center
Mon 02:46:58 PM 40.1986 -77.5086 257° West 293 337 36,000  Level Cleveland Center
Mon 02:47:58 PM 40.1783 -77.6075 255° West 293 337 36,000  Level Cleveland Center
Mon 02:48:58 PM 40.1603 -77.7117 257° West 293 337 36,000  Level Cleveland Center
Mon 02:49:58 PM 40.1503 -77.8125 263° West 288 331 36,000  Level Cleveland Center
Mon 02:50:58 PM 40.1508 -77.9239 270° West 283 326 36,000  Level Cleveland Center
Mon 02:51:58 PM 40.1508 -78.0217 270° West 283 326 36,000  Level Cleveland Center
Mon 02:52:58 PM 40.1533 -78.1247 272° West 283 326 36,000  Level Cleveland Center
Mon 02:53:58 PM 40.1553 -78.2225 272° West 283 326 36,000  Level Cleveland Center
Mon 02:54:58 PM 40.1572 -78.3231 271° West 283 326 36,000  Level Cleveland Center
Mon 02:55:58 PM 40.1592 -78.4206 272° West 283 326 36,000  Level Cleveland Center
Mon 02:56:58 PM 40.1592 -78.5239 270° West 283 326 36,000  Level Cleveland Center
Mon 02:57:58 PM 40.1608 -78.6217 271° West 283 326 36,000  Level Cleveland Center
Mon 02:58:58 PM 40.1625 -78.7250 271° West 283 326 36,000  Level Cleveland Center
Mon 02:59:58 PM 40.1619 -78.8253 270° West 278 320 36,000  Level Cleveland Center
Mon 03:00:58 PM 40.1636 -78.9258 271° West 278 320 36,000  Level Cleveland Center
Mon 03:01:58 PM 40.1628 -79.0211 269° West 273 314 36,000  Level Cleveland Center
Mon 03:02:58 PM 40.1664 -79.1269 273° West 273 314 36,000  Level Cleveland Center
Mon 03:03:58 PM 40.1656 -79.2303 269° West 273 314 36,000  Level Cleveland Center
Mon 03:04:58 PM 40.1686 -79.3306 272° West 278 320 36,000  Level Cleveland Center
Mon 03:05:58 PM 40.1697 -79.4283 271° West 278 320 36,000  Level Cleveland Center
Mon 03:06:58 PM 40.1708 -79.5317 271° West 278 320 36,000  Level Cleveland Center
Mon 03:07:58 PM 40.1694 -79.6350 269° West 278 320 36,000  Level Cleveland Center
Mon 03:08:58 PM 40.1703 -79.7353 271° West 283 326 36,000  Level Cleveland Center
Mon 03:09:58 PM 40.1711 -79.8386 271° West 283 326 36,000  Level Cleveland Center
Mon 03:10:58 PM 40.1717 -79.9364 270° West 283 326 36,000  Level Cleveland Center
Mon 03:11:59 PM 40.1700 -80.0397 269° West 289 333 36,000  Level Cleveland Center
Mon 03:12:58 PM 40.1706 -80.1403 270° West 289 333 36,000  Level Cleveland Center
Mon 03:13:58 PM 40.1708 -80.2433 270° West 289 333 36,000  Level Cleveland Center
Mon 03:14:58 PM 40.1711 -80.3439 270° West 284 327 36,000  Level Cleveland Center
Mon 03:15:58 PM 40.1714 -80.4444 270° West 284 327 36,000  Level Cleveland Center
Mon 03:16:58 PM 40.1714 -80.5450 270° West 284 327 36,000  Level Cleveland Center
Mon 03:19:12 PM 40.1656 -80.7678 268° West 281 323 36,000  Level Indianapolis Center
Mon 03:20:14 PM 40.1650 -80.8733 270° West 286 329 36,000  Level Indianapolis Center
Mon 03:21:16 PM 40.1647 -80.9792 270° West 289 333 36,000  Level Indianapolis Center
Mon 03:22:18 PM 40.1633 -81.0853 269° West 289 333 36,000  Level Indianapolis Center
Mon 03:23:20 PM 40.1619 -81.1933 269° West 293 337 36,000  Level Indianapolis Center
Mon 03:24:22 PM 40.1611 -81.3200 270° West 296 341 36,000  Level Indianapolis Center
Mon 03:25:24 PM 40.1603 -81.4300 269° West 300 345 36,000  Level Indianapolis Center
Mon 03:26:26 PM 40.1586 -81.5400 269° West 300 345 36,000  Level Indianapolis Center
Mon 03:27:28 PM 40.1572 -81.6497 269° West 299 344 36,000  Level Indianapolis Center
Mon 03:28:30 PM 40.1550 -81.7608 269° West 302 348 36,000  Level Indianapolis Center
Mon 03:29:32 PM 40.1536 -81.8756 269° West 302 348 36,000  Level Indianapolis Center
Mon 03:30:34 PM 40.1519 -81.9864 269° West 302 348 36,000 -290 Level Indianapolis Center
Mon 03:31:36 PM 40.1494 -82.1006 268° West 310 357 35,400 -484 Descending Indianapolis Center
Mon 03:32:38 PM 40.1475 -82.2164 269° West 315 362 35,000 -581 Descending Indianapolis Center
Mon 03:33:40 PM 40.1447 -82.3350 268° West 322 371 34,200 -774 Descending Indianapolis Center
Mon 03:34:42 PM 40.1417 -82.4750 268° West 327 376 33,400 -919 Descending Indianapolis Center
Mon 03:35:44 PM 40.1397 -82.5997 269° West 339 390 32,300 -780 Descending Indianapolis Center
Mon 03:36:45 PM 40.1364 -82.7239 268° West 340 391 31,800 -732 Descending Indianapolis Center
Mon 03:37:47 PM 40.1342 -82.8486 269° West 340 391 30,800 -871 Descending Indianapolis Center
Mon 03:38:49 PM 40.1300 -82.9733 268° West 341 392 30,000 -387 Descending Indianapolis Center
Mon 03:39:51 PM 40.1292 -83.0947 270° West 335 386 30,000  Level Indianapolis Center
Mon 03:40:53 PM 40.1292 -83.2103 270° West 322 371 30,000  Level Indianapolis Center
Mon 03:41:55 PM 40.1294 -83.3433 270° West 315 362 30,000  Level Indianapolis Center
Mon 03:42:57 PM 40.1294 -83.4578 270° West 315 362 30,000  Level Indianapolis Center
Mon 03:43:59 PM 40.1289 -83.5725 270° West 318 366 30,000  Level Indianapolis Center
Mon 03:45:01 PM 40.1283 -83.6861 270° West 314 361 30,000 -48 Level Indianapolis Center
Mon 03:46:03 PM 40.1278 -83.8000 270° West 315 362 29,900 -1,065 Descending Indianapolis Center
Mon 03:47:05 PM 40.1414 -83.9228 278° West 343 395 27,800 -1,742 Descending Indianapolis Center
Mon 03:48:07 PM 40.1586 -84.0789 278° West 368 423 26,300 -1,452 Descending Indianapolis Center
Mon 03:49:09 PM 40.1758 -84.2094 280° West 366 421 24,800 -1,355 Descending Indianapolis Center
Mon 03:50:11 PM 40.1708 -84.3389 267° West 356 410 23,500 -1,355 Descending Indianapolis Center
Mon 03:51:13 PM 40.1550 -84.4631 261° West 343 395 22,000 -1,512 Descending Indianapolis Center
Mon 03:52:14 PM 40.1275 -84.5803 253° West 336 387 20,400 -1,463 Descending Indianapolis Center
Mon 03:53:16 PM 40.1028 -84.6950 254° West 328 377 19,000 -1,306 Descending Indianapolis Center
Mon 03:54:18 PM 40.0781 -84.8092 254° West 325 374 17,700 -1,403 Descending Indianapolis Center
Mon 03:55:20 PM 40.0517 -84.9367 255° West 322 371 16,100 -1,452 Descending Indianapolis Center
Mon 03:56:22 PM 40.0275 -85.0486 254° West 322 371 14,700 -1,366 Descending Indianapolis Center
Mon 03:57:23 PM 40.0036 -85.1586 254° West 316 364 13,300 -1,415 Descending Indianapolis Center
Mon 03:58:25 PM 39.9811 -85.2658 255° West 308 354 11,800 -1,403 Descending Indianapolis Center
Mon 03:59:27 PM 39.9594 -85.3700 255° West 301 346 10,400 -1,355 Descending Indianapolis Center
Mon 04:00:29 PM 39.9353 -85.4761 253° West 304 350 9,000 -2,274 Descending Indianapolis Center
Mon 04:01:31 PM 39.9008 -85.5842 247° West 271 312 5,700 -2,634 Descending Indianapolis Center
Mon 04:02:32 PM 39.8722 -85.6678 246° West 263 303 3,600 -1,317 Descending Indianapolis Center
Mon 04:03:34 PM 39.8461 -85.7231 238° Southwest 238 274 3,000 -581 Descending Indianapolis Center

Login

Don't have an account? Register now (free) for customized features, flight alerts, and more!